sensor_id;sensor_type;location;lat;lon;timestamp;temperature;humidity
22098;DHT22;11215;51.938;8.464;2023-02-28T00:05:29;3.40;60.90
22098;DHT22;11215;51.938;8.464;2023-02-28T00:11:17;3.40;61.00
22098;DHT22;11215;51.938;8.464;2023-02-28T00:17:24;3.30;61.00
22098;DHT22;11215;51.938;8.464;2023-02-28T00:19:50;3.30;61.10
22098;DHT22;11215;51.938;8.464;2023-02-28T00:25:54;3.30;61.20
22098;DHT22;11215;51.938;8.464;2023-02-28T00:28:20;3.30;61.10
22098;DHT22;11215;51.938;8.464;2023-02-28T00:33:49;3.20;61.00
22098;DHT22;11215;51.938;8.464;2023-02-28T00:36:17;3.20;60.70
22098;DHT22;11215;51.938;8.464;2023-02-28T00:42:05;3.10;61.00
22098;DHT22;11215;51.938;8.464;2023-02-28T00:51:08;3.10;61.10
22098;DHT22;11215;51.938;8.464;2023-02-28T00:56:50;3.00;61.30
22098;DHT22;11215;51.938;8.464;2023-02-28T01:02:38;3.00;61.40
22098;DHT22;11215;51.938;8.464;2023-02-28T01:05:18;3.00;61.10
22098;DHT22;11215;51.938;8.464;2023-02-28T01:07:44;3.00;61.50
22098;DHT22;11215;51.938;8.464;2023-02-28T01:10:26;3.00;61.30
22098;DHT22;11215;51.938;8.464;2023-02-28T01:12:53;2.90;61.50
22098;DHT22;11215;51.938;8.464;2023-02-28T01:15:37;3.00;61.30
22098;DHT22;11215;51.938;8.464;2023-02-28T01:18:04;3.00;61.60
22098;DHT22;11215;51.938;8.464;2023-02-28T01:27:13;2.90;61.40
22098;DHT22;11215;51.938;8.464;2023-02-28T01:33:01;2.90;61.50
22098;DHT22;11215;51.938;8.464;2023-02-28T01:42:29;2.80;61.60
22098;DHT22;11215;51.938;8.464;2023-02-28T01:48:17;2.80;61.70
22098;DHT22;11215;51.938;8.464;2023-02-28T01:54:11;2.80;61.90
22098;DHT22;11215;51.938;8.464;2023-02-28T02:00:03;2.70;61.90
22098;DHT22;11215;51.938;8.464;2023-02-28T02:09:14;2.60;61.70
22098;DHT22;11215;51.938;8.464;2023-02-28T02:18:51;2.60;61.80
22098;DHT22;11215;51.938;8.464;2023-02-28T02:45:23;2.40;62.20
22098;DHT22;11215;51.938;8.464;2023-02-28T02:48:12;2.40;62.00
22098;DHT22;11215;51.938;8.464;2023-02-28T02:51:01;2.40;61.90
22098;DHT22;11215;51.938;8.464;2023-02-28T03:20:38;2.10;62.20
22098;DHT22;11215;51.938;8.464;2023-02-28T03:26:01;2.10;62.20
22098;DHT22;11215;51.938;8.464;2023-02-28T03:35:12;2.00;62.50
22098;DHT22;11215;51.938;8.464;2023-02-28T03:41:34;1.90;62.60
22098;DHT22;11215;51.938;8.464;2023-02-28T03:44:11;1.90;62.40
22098;DHT22;11215;51.938;8.464;2023-02-28T03:47:02;1.90;62.30
22098;DHT22;11215;51.938;8.464;2023-02-28T03:56:12;1.80;62.40
22098;DHT22;11215;51.938;8.464;2023-02-28T04:06:01;1.70;62.30
22098;DHT22;11215;51.938;8.464;2023-02-28T04:08:27;1.70;62.30
22098;DHT22;11215;51.938;8.464;2023-02-28T04:14:02;1.60;62.50
22098;DHT22;11215;51.938;8.464;2023-02-28T04:20:15;1.60;62.90
22098;DHT22;11215;51.938;8.464;2023-02-28T04:22:40;1.60;62.90
22098;DHT22;11215;51.938;8.464;2023-02-28T04:35:43;1.50;62.90
22098;DHT22;11215;51.938;8.464;2023-02-28T04:41:31;1.40;62.90
22098;DHT22;11215;51.938;8.464;2023-02-28T04:43:56;1.50;62.70
22098;DHT22;11215;51.938;8.464;2023-02-28T04:49:53;1.40;63.10
22098;DHT22;11215;51.938;8.464;2023-02-28T04:55:59;1.40;63.10
22098;DHT22;11215;51.938;8.464;2023-02-28T04:58:26;1.30;63.10
22098;DHT22;11215;51.938;8.464;2023-02-28T05:00:52;1.30;62.90
22098;DHT22;11215;51.938;8.464;2023-02-28T05:03:33;1.30;63.00
22098;DHT22;11215;51.938;8.464;2023-02-28T05:05:59;1.30;63.20
22098;DHT22;11215;51.938;8.464;2023-02-28T05:08:28;1.20;63.00
22098;DHT22;11215;51.938;8.464;2023-02-28T05:10:55;1.20;63.10
22098;DHT22;11215;51.938;8.464;2023-02-28T05:16:58;1.20;63.40
22098;DHT22;11215;51.938;8.464;2023-02-28T05:19:23;1.20;63.20
22098;DHT22;11215;51.938;8.464;2023-02-28T05:25:36;1.10;63.10
22098;DHT22;11215;51.938;8.464;2023-02-28T05:31:26;1.10;63.10
22098;DHT22;11215;51.938;8.464;2023-02-28T05:37:27;1.00;63.10
22098;DHT22;11215;51.938;8.464;2023-02-28T05:39:52;1.00;63.00
22098;DHT22;11215;51.938;8.464;2023-02-28T05:42:46;1.00;63.80
22098;DHT22;11215;51.938;8.464;2023-02-28T05:48:36;1.00;63.30
22098;DHT22;11215;51.938;8.464;2023-02-28T05:51:02;0.90;63.00
22098;DHT22;11215;51.938;8.464;2023-02-28T05:53:28;0.90;63.00
22098;DHT22;11215;51.938;8.464;2023-02-28T05:56:06;0.90;63.00
22098;DHT22;11215;51.938;8.464;2023-02-28T06:01:53;0.90;63.30
22098;DHT22;11215;51.938;8.464;2023-02-28T06:10:50;0.80;63.20
22098;DHT22;11215;51.938;8.464;2023-02-28T06:13:16;0.80;63.00
22098;DHT22;11215;51.938;8.464;2023-02-28T06:19:04;0.80;63.40
22098;DHT22;11215;51.938;8.464;2023-02-28T06:21:37;0.80;63.20
22098;DHT22;11215;51.938;8.464;2023-02-28T06:24:03;0.80;63.50
22098;DHT22;11215;51.938;8.464;2023-02-28T06:29:33;0.70;63.60
22098;DHT22;11215;51.938;8.464;2023-02-28T06:32:07;0.80;63.40
22098;DHT22;11215;51.938;8.464;2023-02-28T06:34:33;0.70;63.50
22098;DHT22;11215;51.938;8.464;2023-02-28T06:40:23;0.70;63.60
22098;DHT22;11215;51.938;8.464;2023-02-28T06:46:13;0.70;63.70
22098;DHT22;11215;51.938;8.464;2023-02-28T06:52:38;0.70;63.70
22098;DHT22;11215;51.938;8.464;2023-02-28T06:55:05;0.70;63.80
22098;DHT22;11215;51.938;8.464;2023-02-28T07:00:53;0.70;63.90
22098;DHT22;11215;51.938;8.464;2023-02-28T07:23:19;0.80;64.30
22098;DHT22;11215;51.938;8.464;2023-02-28T07:25:46;0.80;64.20
22098;DHT22;11215;51.938;8.464;2023-02-28T07:31:07;0.90;64.70
22098;DHT22;11215;51.938;8.464;2023-02-28T07:40:17;0.90;65.00
22098;DHT22;11215;51.938;8.464;2023-02-28T07:49:57;1.00;65.40
22098;DHT22;11215;51.938;8.464;2023-02-28T07:52:23;1.10;65.50
22098;DHT22;11215;51.938;8.464;2023-02-28T07:58:11;1.20;65.80
22098;DHT22;11215;51.938;8.464;2023-02-28T08:03:57;1.40;66.10
22098;DHT22;11215;51.938;8.464;2023-02-28T08:06:28;1.60;65.80
22098;DHT22;11215;51.938;8.464;2023-02-28T08:08:53;1.60;65.70
22098;DHT22;11215;51.938;8.464;2023-02-28T08:14:45;1.80;66.00
22098;DHT22;11215;51.938;8.464;2023-02-28T08:17:10;2.00;66.60
22098;DHT22;11215;51.938;8.464;2023-02-28T08:22:44;2.20;65.10
22098;DHT22;11215;51.938;8.464;2023-02-28T08:35:23;3.20;63.40
22098;DHT22;11215;51.938;8.464;2023-02-28T08:37:49;3.50;63.80
22098;DHT22;11215;51.938;8.464;2023-02-28T08:43:37;3.80;61.10
22098;DHT22;11215;51.938;8.464;2023-02-28T08:46:04;4.00;61.80
22098;DHT22;11215;51.938;8.464;2023-02-28T08:48:45;4.20;61.10
22098;DHT22;11215;51.938;8.464;2023-02-28T08:51:13;4.30;59.60
22098;DHT22;11215;51.938;8.464;2023-02-28T08:57:10;4.50;58.70
22098;DHT22;11215;51.938;8.464;2023-02-28T08:59:35;4.60;59.00
22098;DHT22;11215;51.938;8.464;2023-02-28T09:02:13;4.70;59.00
22098;DHT22;11215;51.938;8.464;2023-02-28T09:04:38;4.80;58.10
22098;DHT22;11215;51.938;8.464;2023-02-28T09:07:04;4.90;58.70
22098;DHT22;11215;51.938;8.464;2023-02-28T09:13:14;5.10;57.80
22098;DHT22;11215;51.938;8.464;2023-02-28T09:15:39;5.20;57.80
22098;DHT22;11215;51.938;8.464;2023-02-28T09:18:05;5.30;58.30
22098;DHT22;11215;51.938;8.464;2023-02-28T09:20:44;5.40;57.80
22098;DHT22;11215;51.938;8.464;2023-02-28T09:23:11;5.40;57.10
22098;DHT22;11215;51.938;8.464;2023-02-28T09:26:00;5.50;57.40
22098;DHT22;11215;51.938;8.464;2023-02-28T09:28:25;5.50;56.50
22098;DHT22;11215;51.938;8.464;2023-02-28T09:34:13;5.60;56.10
22098;DHT22;11215;51.938;8.464;2023-02-28T09:40:00;5.60;56.00
22098;DHT22;11215;51.938;8.464;2023-02-28T09:54:22;5.90;56.90
22098;DHT22;11215;51.938;8.464;2023-02-28T09:57:18;5.90;56.10
22098;DHT22;11215;51.938;8.464;2023-02-28T10:08:18;6.10;56.00
22098;DHT22;11215;51.938;8.464;2023-02-28T10:10:47;6.10;56.20
22098;DHT22;11215;51.938;8.464;2023-02-28T10:15:53;6.20;56.10
22098;DHT22;11215;51.938;8.464;2023-02-28T10:18:49;6.20;55.90
22098;DHT22;11215;51.938;8.464;2023-02-28T10:21:42;6.20;55.50
22098;DHT22;11215;51.938;8.464;2023-02-28T10:24:28;6.20;56.10
22098;DHT22;11215;51.938;8.464;2023-02-28T10:27:05;6.30;55.50
22098;DHT22;11215;51.938;8.464;2023-02-28T10:29:32;6.30;55.60
22098;DHT22;11215;51.938;8.464;2023-02-28T10:32:01;6.30;56.10
22098;DHT22;11215;51.938;8.464;2023-02-28T10:34:27;6.30;55.90
22098;DHT22;11215;51.938;8.464;2023-02-28T10:36:53;6.40;56.10
22098;DHT22;11215;51.938;8.464;2023-02-28T10:39:41;6.40;55.90
22098;DHT22;11215;51.938;8.464;2023-02-28T10:42:23;6.40;55.40
22098;DHT22;11215;51.938;8.464;2023-02-28T10:45:06;6.40;55.60
22098;DHT22;11215;51.938;8.464;2023-02-28T10:47:34;6.50;56.10
22098;DHT22;11215;51.938;8.464;2023-02-28T10:50:03;6.50;56.20
22098;DHT22;11215;51.938;8.464;2023-02-28T10:52:38;6.60;56.30
22098;DHT22;11215;51.938;8.464;2023-02-28T10:55:23;6.60;55.90
22098;DHT22;11215;51.938;8.464;2023-02-28T10:57:51;6.60;55.60
22098;DHT22;11215;51.938;8.464;2023-02-28T11:00:22;6.70;56.30
22098;DHT22;11215;51.938;8.464;2023-02-28T11:02:48;6.70;55.90
22098;DHT22;11215;51.938;8.464;2023-02-28T11:05:35;6.70;55.90
22098;DHT22;11215;51.938;8.464;2023-02-28T11:08:18;6.80;55.10
22098;DHT22;11215;51.938;8.464;2023-02-28T11:10:46;6.80;55.30
22098;DHT22;11215;51.938;8.464;2023-02-28T11:13:20;6.90;56.10
22098;DHT22;11215;51.938;8.464;2023-02-28T11:15:54;6.90;55.80
22098;DHT22;11215;51.938;8.464;2023-02-28T11:18:39;6.90;55.90
22098;DHT22;11215;51.938;8.464;2023-02-28T11:21:06;7.00;55.70
22098;DHT22;11215;51.938;8.464;2023-02-28T11:23:36;7.10;56.10
22098;DHT22;11215;51.938;8.464;2023-02-28T11:26:05;7.20;55.90
22098;DHT22;11215;51.938;8.464;2023-02-28T11:28:40;7.20;55.90
22098;DHT22;11215;51.938;8.464;2023-02-28T11:36:23;7.40;54.80
22098;DHT22;11215;51.938;8.464;2023-02-28T11:38:50;7.50;53.40
22098;DHT22;11215;51.938;8.464;2023-02-28T11:46:51;7.50;53.10
22098;DHT22;11215;51.938;8.464;2023-02-28T11:52:34;7.60;52.90
22098;DHT22;11215;51.938;8.464;2023-02-28T11:57:55;7.60;52.70
22098;DHT22;11215;51.938;8.464;2023-02-28T12:09:00;7.80;52.20
22098;DHT22;11215;51.938;8.464;2023-02-28T12:17:16;7.80;52.50
22098;DHT22;11215;51.938;8.464;2023-02-28T12:23:02;7.80;52.50
22098;DHT22;11215;51.938;8.464;2023-02-28T12:28:35;7.90;52.80
22098;DHT22;11215;51.938;8.464;2023-02-28T12:31:10;7.90;53.10
22098;DHT22;11215;51.938;8.464;2023-02-28T12:33:45;7.90;53.20
22098;DHT22;11215;51.938;8.464;2023-02-28T12:36:15;7.90;53.00
22098;DHT22;11215;51.938;8.464;2023-02-28T12:38:48;7.90;52.80
22098;DHT22;11215;51.938;8.464;2023-02-28T12:41:41;7.90;52.60
22098;DHT22;11215;51.938;8.464;2023-02-28T12:44:47;8.00;52.20
22098;DHT22;11215;51.938;8.464;2023-02-28T12:47:17;8.00;52.20
22098;DHT22;11215;51.938;8.464;2023-02-28T12:50:19;8.00;52.80
22098;DHT22;11215;51.938;8.464;2023-02-28T12:53:06;8.00;52.60
22098;DHT22;11215;51.938;8.464;2023-02-28T13:06:41;8.10;51.90
22098;DHT22;11215;51.938;8.464;2023-02-28T13:09:16;8.20;52.80
22098;DHT22;11215;51.938;8.464;2023-02-28T13:11:51;8.20;52.20
22098;DHT22;11215;51.938;8.464;2023-02-28T13:14:27;8.30;51.90
22098;DHT22;11215;51.938;8.464;2023-02-28T13:16:59;8.30;51.50
22098;DHT22;11215;51.938;8.464;2023-02-28T13:19:28;8.30;51.90
22098;DHT22;11215;51.938;8.464;2023-02-28T13:21:55;8.40;51.80
22098;DHT22;11215;51.938;8.464;2023-02-28T13:29:40;8.40;52.00
22098;DHT22;11215;51.938;8.464;2023-02-28T13:34:37;8.40;51.90
22098;DHT22;11215;51.938;8.464;2023-02-28T13:37:36;8.40;51.70
22098;DHT22;11215;51.938;8.464;2023-02-28T13:55:31;8.60;51.10
22098;DHT22;11215;51.938;8.464;2023-02-28T14:01:34;8.60;50.80
22098;DHT22;11215;51.938;8.464;2023-02-28T14:06:59;8.60;50.40
22098;DHT22;11215;51.938;8.464;2023-02-28T14:09:30;8.60;51.10
22098;DHT22;11215;51.938;8.464;2023-02-28T14:11:57;8.60;50.90
22098;DHT22;11215;51.938;8.464;2023-02-28T14:17:12;8.60;50.60
22098;DHT22;11215;51.938;8.464;2023-02-28T14:19:40;8.60;50.80
22098;DHT22;11215;51.938;8.464;2023-02-28T14:22:40;8.60;51.00
22098;DHT22;11215;51.938;8.464;2023-02-28T14:25:17;8.60;50.90
22098;DHT22;11215;51.938;8.464;2023-02-28T14:30:55;8.60;51.00
22098;DHT22;11215;51.938;8.464;2023-02-28T14:34:15;8.70;51.20
22098;DHT22;11215;51.938;8.464;2023-02-28T14:36:23;8.60;50.80
22098;DHT22;11215;51.938;8.464;2023-02-28T14:38:53;8.70;51.10
22098;DHT22;11215;51.938;8.464;2023-02-28T14:41:32;8.70;51.00
22098;DHT22;11215;51.938;8.464;2023-02-28T14:44:17;8.60;50.70
22098;DHT22;11215;51.938;8.464;2023-02-28T14:46:44;8.60;50.90
22098;DHT22;11215;51.938;8.464;2023-02-28T14:49:18;8.60;50.90
22098;DHT22;11215;51.938;8.464;2023-02-28T14:51:44;8.60;50.60
22098;DHT22;11215;51.938;8.464;2023-02-28T14:54:14;8.60;50.90
22098;DHT22;11215;51.938;8.464;2023-02-28T14:56:41;8.60;50.70
22098;DHT22;11215;51.938;8.464;2023-02-28T14:59:25;8.60;50.80
22098;DHT22;11215;51.938;8.464;2023-02-28T15:01:51;8.60;50.10
22098;DHT22;11215;51.938;8.464;2023-02-28T15:04:26;8.60;50.80
22098;DHT22;11215;51.938;8.464;2023-02-28T15:07:15;8.50;50.30
22098;DHT22;11215;51.938;8.464;2023-02-28T15:09:41;8.50;50.20
22098;DHT22;11215;51.938;8.464;2023-02-28T15:12:07;8.50;50.80
22098;DHT22;11215;51.938;8.464;2023-02-28T15:14:37;8.50;50.80
22098;DHT22;11215;51.938;8.464;2023-02-28T15:17:11;8.50;50.70
22098;DHT22;11215;51.938;8.464;2023-02-28T15:19:43;8.50;50.40
22098;DHT22;11215;51.938;8.464;2023-02-28T15:22:18;8.50;50.40
22098;DHT22;11215;51.938;8.464;2023-02-28T15:24:46;8.50;50.20
22098;DHT22;11215;51.938;8.464;2023-02-28T15:27:20;8.50;50.70
22098;DHT22;11215;51.938;8.464;2023-02-28T15:29:49;8.50;50.40
22098;DHT22;11215;51.938;8.464;2023-02-28T15:32:38;8.50;50.40
22098;DHT22;11215;51.938;8.464;2023-02-28T15:38:28;8.50;50.20
22098;DHT22;11215;51.938;8.464;2023-02-28T15:40:55;8.50;50.40
22098;DHT22;11215;51.938;8.464;2023-02-28T15:43:30;8.50;50.50
22098;DHT22;11215;51.938;8.464;2023-02-28T15:46:05;8.50;50.50
22098;DHT22;11215;51.938;8.464;2023-02-28T15:48:43;8.50;50.40
22098;DHT22;11215;51.938;8.464;2023-02-28T15:52:05;8.50;50.50
22098;DHT22;11215;51.938;8.464;2023-02-28T15:54:34;8.40;50.20
22098;DHT22;11215;51.938;8.464;2023-02-28T15:57:07;8.40;50.40
22098;DHT22;11215;51.938;8.464;2023-02-28T15:59:37;8.40;50.40
22098;DHT22;11215;51.938;8.464;2023-02-28T16:04:35;8.40;50.30
22098;DHT22;11215;51.938;8.464;2023-02-28T16:07:05;8.40;50.50
22098;DHT22;11215;51.938;8.464;2023-02-28T16:09:31;8.30;50.50
22098;DHT22;11215;51.938;8.464;2023-02-28T16:12:00;8.40;50.60
22098;DHT22;11215;51.938;8.464;2023-02-28T16:14:31;8.30;50.50
22098;DHT22;11215;51.938;8.464;2023-02-28T16:17:03;8.30;50.60
22098;DHT22;11215;51.938;8.464;2023-02-28T16:19:29;8.30;50.60
22098;DHT22;11215;51.938;8.464;2023-02-28T16:21:56;8.30;50.70
22098;DHT22;11215;51.938;8.464;2023-02-28T16:24:22;8.30;50.70
22098;DHT22;11215;51.938;8.464;2023-02-28T16:26:48;8.30;50.70
22098;DHT22;11215;51.938;8.464;2023-02-28T16:29:28;8.30;50.70
22098;DHT22;11215;51.938;8.464;2023-02-28T16:31:56;8.20;50.60
22098;DHT22;11215;51.938;8.464;2023-02-28T16:34:22;8.20;51.40
22098;DHT22;11215;51.938;8.464;2023-02-28T16:36:49;8.20;50.70
22098;DHT22;11215;51.938;8.464;2023-02-28T16:39:15;8.10;50.60
22098;DHT22;11215;51.938;8.464;2023-02-28T16:41:45;8.10;50.60
22098;DHT22;11215;51.938;8.464;2023-02-28T16:44:17;8.10;50.60
22098;DHT22;11215;51.938;8.464;2023-02-28T16:46:46;8.00;50.60
22098;DHT22;11215;51.938;8.464;2023-02-28T16:49:12;8.00;50.70
22098;DHT22;11215;51.938;8.464;2023-02-28T16:51:57;8.00;50.70
22098;DHT22;11215;51.938;8.464;2023-02-28T16:54:23;7.90;50.30
22098;DHT22;11215;51.938;8.464;2023-02-28T16:56:49;7.90;50.70
22098;DHT22;11215;51.938;8.464;2023-02-28T16:59:19;7.80;50.70
22098;DHT22;11215;51.938;8.464;2023-02-28T17:01:46;7.80;50.70
22098;DHT22;11215;51.938;8.464;2023-02-28T17:04:34;7.70;50.90
22098;DHT22;11215;51.938;8.464;2023-02-28T17:06:59;7.70;50.60
22098;DHT22;11215;51.938;8.464;2023-02-28T17:09:25;7.60;50.90
22098;DHT22;11215;51.938;8.464;2023-02-28T17:11:52;7.60;50.90
22098;DHT22;11215;51.938;8.464;2023-02-28T17:14:18;7.50;50.80
22098;DHT22;11215;51.938;8.464;2023-02-28T17:16:44;7.50;50.90
22098;DHT22;11215;51.938;8.464;2023-02-28T17:19:12;7.40;51.00
22098;DHT22;11215;51.938;8.464;2023-02-28T17:21:39;7.40;51.00
22098;DHT22;11215;51.938;8.464;2023-02-28T17:24:07;7.40;51.00
22098;DHT22;11215;51.938;8.464;2023-02-28T17:26:34;7.30;51.10
22098;DHT22;11215;51.938;8.464;2023-02-28T17:29:01;7.20;51.10
22098;DHT22;11215;51.938;8.464;2023-02-28T17:31:27;7.10;51.10
22098;DHT22;11215;51.938;8.464;2023-02-28T17:33:53;7.10;51.20
22098;DHT22;11215;51.938;8.464;2023-02-28T17:36:24;7.00;51.20
22098;DHT22;11215;51.938;8.464;2023-02-28T17:38:51;7.00;51.30
22098;DHT22;11215;51.938;8.464;2023-02-28T17:41:18;6.90;51.30
22098;DHT22;11215;51.938;8.464;2023-02-28T17:43:44;6.90;51.30
22098;DHT22;11215;51.938;8.464;2023-02-28T17:46:28;6.80;51.40
22098;DHT22;11215;51.938;8.464;2023-02-28T17:48:54;6.70;51.30
22098;DHT22;11215;51.938;8.464;2023-02-28T17:51:21;6.70;51.60
22098;DHT22;11215;51.938;8.464;2023-02-28T17:53:47;6.60;52.30
22098;DHT22;11215;51.938;8.464;2023-02-28T17:56:19;6.60;51.90
22098;DHT22;11215;51.938;8.464;2023-02-28T17:58:45;6.50;51.80
22098;DHT22;11215;51.938;8.464;2023-02-28T18:01:11;6.50;51.90
22098;DHT22;11215;51.938;8.464;2023-02-28T18:03:37;6.40;52.00
22098;DHT22;11215;51.938;8.464;2023-02-28T18:06:04;6.40;52.10
22098;DHT22;11215;51.938;8.464;2023-02-28T18:08:30;6.30;52.10
22098;DHT22;11215;51.938;8.464;2023-02-28T18:10:56;6.20;52.20
22098;DHT22;11215;51.938;8.464;2023-02-28T18:13:22;6.20;52.20
22098;DHT22;11215;51.938;8.464;2023-02-28T18:15:47;6.10;52.30
22098;DHT22;11215;51.938;8.464;2023-02-28T18:18:13;6.10;52.30
22098;DHT22;11215;51.938;8.464;2023-02-28T18:20:41;6.00;52.40
22098;DHT22;11215;51.938;8.464;2023-02-28T18:26:28;5.90;52.60
22098;DHT22;11215;51.938;8.464;2023-02-28T18:28:54;5.90;52.60
22098;DHT22;11215;51.938;8.464;2023-02-28T18:31:20;5.80;52.80
22098;DHT22;11215;51.938;8.464;2023-02-28T18:33:50;5.80;52.80
22098;DHT22;11215;51.938;8.464;2023-02-28T18:36:18;5.70;53.00
22098;DHT22;11215;51.938;8.464;2023-02-28T18:38:43;5.70;53.10
22098;DHT22;11215;51.938;8.464;2023-02-28T18:41:10;5.60;53.10
22098;DHT22;11215;51.938;8.464;2023-02-28T18:43:36;5.60;53.20
22098;DHT22;11215;51.938;8.464;2023-02-28T18:46:12;5.50;53.20
22098;DHT22;11215;51.938;8.464;2023-02-28T18:48:38;5.50;53.30
22098;DHT22;11215;51.938;8.464;2023-02-28T18:51:15;5.50;53.40
22098;DHT22;11215;51.938;8.464;2023-02-28T18:53:42;5.40;53.50
22098;DHT22;11215;51.938;8.464;2023-02-28T18:56:11;5.40;53.50
22098;DHT22;11215;51.938;8.464;2023-02-28T18:58:38;5.40;53.50
22098;DHT22;11215;51.938;8.464;2023-02-28T19:03:40;5.30;53.70
22098;DHT22;11215;51.938;8.464;2023-02-28T19:06:06;5.30;53.70
22098;DHT22;11215;51.938;8.464;2023-02-28T19:08:32;5.20;53.80
22098;DHT22;11215;51.938;8.464;2023-02-28T19:10:58;5.20;53.80
22098;DHT22;11215;51.938;8.464;2023-02-28T19:13:23;5.20;53.90
22098;DHT22;11215;51.938;8.464;2023-02-28T19:15:49;5.20;53.90
22098;DHT22;11215;51.938;8.464;2023-02-28T19:18:14;5.10;54.00
22098;DHT22;11215;51.938;8.464;2023-02-28T19:20:40;5.10;54.00
22098;DHT22;11215;51.938;8.464;2023-02-28T19:23:06;5.00;54.10
22098;DHT22;11215;51.938;8.464;2023-02-28T19:25:31;5.00;54.20
22098;DHT22;11215;51.938;8.464;2023-02-28T19:27:57;4.90;54.20
22098;DHT22;11215;51.938;8.464;2023-02-28T19:30:23;4.90;54.30
22098;DHT22;11215;51.938;8.464;2023-02-28T19:32:49;4.90;54.30
22098;DHT22;11215;51.938;8.464;2023-02-28T19:35:15;4.80;54.30
22098;DHT22;11215;51.938;8.464;2023-02-28T19:37:41;4.80;54.30
22098;DHT22;11215;51.938;8.464;2023-02-28T19:40:08;4.70;54.30
22098;DHT22;11215;51.938;8.464;2023-02-28T19:42:34;4.70;54.40
22098;DHT22;11215;51.938;8.464;2023-02-28T19:45:00;4.70;54.60
22098;DHT22;11215;51.938;8.464;2023-02-28T19:47:27;4.60;54.60
22098;DHT22;11215;51.938;8.464;2023-02-28T19:49:53;4.60;54.70
22098;DHT22;11215;51.938;8.464;2023-02-28T19:52:20;4.50;54.70
22098;DHT22;11215;51.938;8.464;2023-02-28T19:54:46;4.50;54.90
22098;DHT22;11215;51.938;8.464;2023-02-28T19:57:12;4.50;54.90
22098;DHT22;11215;51.938;8.464;2023-02-28T19:59:38;4.40;55.00
22098;DHT22;11215;51.938;8.464;2023-02-28T20:02:04;4.40;55.00
22098;DHT22;11215;51.938;8.464;2023-02-28T20:04:30;4.40;55.20
22098;DHT22;11215;51.938;8.464;2023-02-28T20:06:56;4.30;55.10
22098;DHT22;11215;51.938;8.464;2023-02-28T20:09:22;4.30;55.10
22098;DHT22;11215;51.938;8.464;2023-02-28T20:11:48;4.30;55.20
22098;DHT22;11215;51.938;8.464;2023-02-28T20:14:14;4.20;55.30
22098;DHT22;11215;51.938;8.464;2023-02-28T20:16:43;4.20;55.30
22098;DHT22;11215;51.938;8.464;2023-02-28T20:19:09;4.20;55.40
22098;DHT22;11215;51.938;8.464;2023-02-28T20:21:37;4.10;55.40
22098;DHT22;11215;51.938;8.464;2023-02-28T20:24:07;4.10;55.50
22098;DHT22;11215;51.938;8.464;2023-02-28T20:26:33;4.10;55.40
22098;DHT22;11215;51.938;8.464;2023-02-28T20:29:02;4.00;55.50
22098;DHT22;11215;51.938;8.464;2023-02-28T20:31:28;4.00;55.50
22098;DHT22;11215;51.938;8.464;2023-02-28T20:33:55;4.00;55.50
22098;DHT22;11215;51.938;8.464;2023-02-28T20:36:21;3.90;55.50
22098;DHT22;11215;51.938;8.464;2023-02-28T20:38:51;3.90;55.60
22098;DHT22;11215;51.938;8.464;2023-02-28T20:41:17;3.90;55.80
22098;DHT22;11215;51.938;8.464;2023-02-28T20:43:43;3.80;55.70
22098;DHT22;11215;51.938;8.464;2023-02-28T20:46:11;3.80;55.80
22098;DHT22;11215;51.938;8.464;2023-02-28T20:48:38;3.80;55.90
22098;DHT22;11215;51.938;8.464;2023-02-28T20:51:10;3.80;56.00
22098;DHT22;11215;51.938;8.464;2023-02-28T20:53:35;3.80;56.00
22098;DHT22;11215;51.938;8.464;2023-02-28T20:56:06;3.70;55.90
22098;DHT22;11215;51.938;8.464;2023-02-28T20:58:36;3.70;56.10
22098;DHT22;11215;51.938;8.464;2023-02-28T21:03:48;3.70;56.10
22098;DHT22;11215;51.938;8.464;2023-02-28T21:06:16;3.60;56.20
22098;DHT22;11215;51.938;8.464;2023-02-28T21:08:42;3.60;56.20
22098;DHT22;11215;51.938;8.464;2023-02-28T21:11:16;3.60;56.30
22098;DHT22;11215;51.938;8.464;2023-02-28T21:13:43;3.60;56.50
22098;DHT22;11215;51.938;8.464;2023-02-28T21:16:12;3.50;56.40
22098;DHT22;11215;51.938;8.464;2023-02-28T21:18:39;3.50;56.50
22098;DHT22;11215;51.938;8.464;2023-02-28T21:21:08;3.50;56.50
22098;DHT22;11215;51.938;8.464;2023-02-28T21:23:34;3.40;56.60
22098;DHT22;11215;51.938;8.464;2023-02-28T21:26:08;3.50;56.60
22098;DHT22;11215;51.938;8.464;2023-02-28T21:28:34;3.40;56.60
22098;DHT22;11215;51.938;8.464;2023-02-28T21:31:05;3.40;56.70
22098;DHT22;11215;51.938;8.464;2023-02-28T21:33:32;3.40;56.80
22098;DHT22;11215;51.938;8.464;2023-02-28T21:36:06;3.40;56.80
22098;DHT22;11215;51.938;8.464;2023-02-28T21:38:36;3.30;56.80
22098;DHT22;11215;51.938;8.464;2023-02-28T21:41:10;3.30;56.90
22098;DHT22;11215;51.938;8.464;2023-02-28T21:43:36;3.30;57.00
22098;DHT22;11215;51.938;8.464;2023-02-28T21:46:04;3.20;56.80
22098;DHT22;11215;51.938;8.464;2023-02-28T21:48:30;3.20;56.90
22098;DHT22;11215;51.938;8.464;2023-02-28T21:51:05;3.20;57.00
22098;DHT22;11215;51.938;8.464;2023-02-28T21:53:36;3.20;57.10
22098;DHT22;11215;51.938;8.464;2023-02-28T21:56:13;3.20;57.20
22098;DHT22;11215;51.938;8.464;2023-02-28T21:58:40;3.10;57.10
22098;DHT22;11215;51.938;8.464;2023-02-28T22:01:13;3.10;57.00
22098;DHT22;11215;51.938;8.464;2023-02-28T22:03:40;3.10;57.20
22098;DHT22;11215;51.938;8.464;2023-02-28T22:06:20;3.10;57.20
22098;DHT22;11215;51.938;8.464;2023-02-28T22:08:49;3.00;57.40
22098;DHT22;11215;51.938;8.464;2023-02-28T22:11:16;3.00;57.30
22098;DHT22;11215;51.938;8.464;2023-02-28T22:13:42;3.00;57.30
22098;DHT22;11215;51.938;8.464;2023-02-28T22:16:11;3.00;57.40
22098;DHT22;11215;51.938;8.464;2023-02-28T22:18:38;3.00;57.50
22098;DHT22;11215;51.938;8.464;2023-02-28T22:21:04;3.00;57.40
22098;DHT22;11215;51.938;8.464;2023-02-28T22:23:30;2.90;57.50
22098;DHT22;11215;51.938;8.464;2023-02-28T22:25:59;2.90;57.50
22098;DHT22;11215;51.938;8.464;2023-02-28T22:28:25;2.90;57.70
22098;DHT22;11215;51.938;8.464;2023-02-28T22:30:52;2.90;57.50
22098;DHT22;11215;51.938;8.464;2023-02-28T22:33:18;2.80;57.50
22098;DHT22;11215;51.938;8.464;2023-02-28T22:35:44;2.80;57.50
22098;DHT22;11215;51.938;8.464;2023-02-28T22:38:10;2.80;57.60
22098;DHT22;11215;51.938;8.464;2023-02-28T22:40:37;2.90;57.70
22098;DHT22;11215;51.938;8.464;2023-02-28T22:43:04;2.80;57.70
22098;DHT22;11215;51.938;8.464;2023-02-28T22:45:29;2.80;57.70
22098;DHT22;11215;51.938;8.464;2023-02-28T22:47:55;2.70;57.70
22098;DHT22;11215;51.938;8.464;2023-02-28T22:50:21;2.70;57.70
22098;DHT22;11215;51.938;8.464;2023-02-28T22:52:46;2.70;57.70
22098;DHT22;11215;51.938;8.464;2023-02-28T22:55:12;2.70;57.70
22098;DHT22;11215;51.938;8.464;2023-02-28T22:57:38;2.70;57.70
22098;DHT22;11215;51.938;8.464;2023-02-28T23:00:06;2.70;57.70
22098;DHT22;11215;51.938;8.464;2023-02-28T23:02:34;2.60;57.70
22098;DHT22;11215;51.938;8.464;2023-02-28T23:05:00;2.60;57.70
22098;DHT22;11215;51.938;8.464;2023-02-28T23:07:26;2.60;57.80
22098;DHT22;11215;51.938;8.464;2023-02-28T23:09:52;2.60;57.90
22098;DHT22;11215;51.938;8.464;2023-02-28T23:12:22;2.50;57.90